Terminal Aerodrome Forecast
Issued by NWS

Home | Current Version | Previous Version | Text Only | Print | Product List | Glossary On
Versions: 1 2 3 4 5 6 7 8 9 10 11 12
000
FTUS43 KSGF 172300
TAFBBG
TAF
KBBG 172331Z 1800/1824 35005KT P6SM SCT080 OVC150
     FM180200 03003KT P6SM BKN080 OVC150
     FM181100 VRB03KT 5SM BR SCT080
     FM181400 07005KT P6SM FEW045=

USA.gov is the U.S. government's official web portal to all federal, state and local government web resources and services.